createdAt,value
2023-10-10T00:02:19.760Z,76.70
2023-10-10T00:04:49.383Z,76.80
2023-10-10T00:07:18.276Z,76.80
2023-10-10T00:09:47.127Z,76.90
2023-10-10T00:12:19.363Z,76.90
2023-10-10T00:14:51.392Z,76.90
2023-10-10T00:17:22.254Z,76.90
2023-10-10T00:19:54.001Z,77.00
2023-10-10T00:22:36.261Z,77.00
2023-10-10T00:25:13.458Z,77.00
2023-10-10T00:27:44.791Z,77.00
2023-10-10T00:30:13.709Z,77.00
2023-10-10T00:32:46.729Z,77.00
2023-10-10T00:35:18.873Z,77.00
2023-10-10T00:37:49.642Z,77.00
2023-10-10T00:40:30.694Z,77.00
2023-10-10T00:43:00.630Z,77.00
2023-10-10T00:45:33.353Z,77.10
2023-10-10T00:48:04.053Z,77.20
2023-10-10T00:50:35.712Z,77.20
2023-10-10T00:53:06.065Z,77.30
2023-10-10T00:55:35.520Z,77.30
2023-10-10T00:58:04.600Z,77.30
2023-10-10T01:00:36.031Z,77.20
2023-10-10T01:03:21.802Z,77.20
2023-10-10T01:05:54.734Z,77.30
2023-10-10T01:08:24.801Z,77.40
2023-10-10T01:10:57.529Z,77.30
2023-10-10T01:13:25.677Z,77.30
2023-10-10T01:15:58.206Z,77.30
2023-10-10T01:18:27.838Z,77.30
2023-10-10T01:20:57.553Z,77.30
2023-10-10T01:23:29.146Z,77.50
2023-10-10T01:26:07.210Z,77.40
2023-10-10T01:28:36.155Z,77.30
2023-10-10T01:31:11.951Z,77.30
2023-10-10T01:33:48.950Z,77.30
2023-10-10T01:36:22.223Z,77.20
2023-10-10T01:39:22.845Z,77.30
2023-10-10T01:41:51.359Z,77.30
2023-10-10T01:44:23.727Z,77.30
2023-10-10T01:46:55.525Z,77.30
2023-10-10T01:49:26.860Z,77.40
2023-10-10T01:51:57.121Z,77.50
2023-10-10T01:54:35.821Z,77.40
2023-10-10T01:57:09.021Z,77.50
2023-10-10T01:59:39.729Z,77.50
2023-10-10T02:02:12.550Z,77.60
2023-10-10T02:04:41.162Z,77.60
2023-10-10T02:07:17.481Z,77.60
2023-10-10T02:09:54.341Z,77.70
2023-10-10T02:12:23.739Z,77.70
2023-10-10T02:14:55.476Z,77.70
2023-10-10T02:17:27.672Z,77.70
2023-10-10T02:20:00.461Z,77.80
2023-10-10T02:22:48.544Z,77.80
2023-10-10T02:25:34.488Z,77.80
2023-10-10T02:28:05.098Z,77.90
2023-10-10T02:30:39.834Z,77.90
2023-10-10T02:33:21.318Z,78.00
2023-10-10T02:35:57.738Z,78.00
2023-10-10T02:38:33.371Z,78.10
2023-10-10T02:41:26.056Z,78.10
2023-10-10T02:44:06.600Z,78.10
2023-10-10T02:46:37.919Z,78.10
2023-10-10T02:49:23.259Z,78.10
2023-10-10T02:51:56.586Z,78.20
2023-10-10T02:54:34.531Z,78.20
2023-10-10T02:57:17.553Z,78.20
2023-10-10T02:59:46.526Z,78.20
2023-10-10T03:02:20.401Z,78.30
2023-10-10T03:05:07.219Z,78.40
2023-10-10T03:07:36.550Z,78.30
2023-10-10T03:10:39.097Z,78.40
2023-10-10T03:13:14.783Z,78.40
2023-10-10T03:15:52.750Z,78.50
2023-10-10T03:18:29.354Z,78.50
2023-10-10T03:21:25.816Z,78.60
2023-10-10T03:23:57.437Z,78.60
2023-10-10T03:26:44.439Z,78.50
2023-10-10T03:29:21.786Z,78.70
2023-10-10T03:31:56.732Z,78.70
2023-10-10T03:34:44.172Z,78.70
2023-10-10T03:37:29.100Z,78.80
2023-10-10T03:39:59.421Z,78.80
2023-10-10T03:42:46.301Z,78.80
2023-10-10T03:45:31.995Z,78.90
2023-10-10T03:48:18.807Z,78.90
2023-10-10T03:51:05.529Z,79.00
2023-10-10T03:53:51.022Z,79.00
2023-10-10T03:56:37.162Z,79.10
2023-10-10T03:59:24.780Z,79.10
2023-10-10T04:02:12.843Z,79.20
2023-10-10T04:05:11.995Z,79.10
2023-10-10T04:08:05.640Z,79.20
2023-10-10T04:10:51.476Z,79.30
2023-10-10T04:13:37.344Z,79.40
2023-10-10T04:16:27.798Z,79.50
2023-10-10T04:19:13.157Z,79.50
2023-10-10T04:21:58.637Z,79.60
2023-10-10T04:24:44.008Z,79.60
2023-10-10T04:27:29.948Z,79.50
2023-10-10T04:30:15.611Z,79.60
2023-10-10T04:33:02.557Z,79.70
2023-10-10T04:35:48.647Z,79.70
2023-10-10T04:38:34.240Z,79.70
2023-10-10T04:41:19.911Z,79.80
2023-10-10T04:44:05.382Z,79.80
2023-10-10T04:46:50.769Z,79.90
2023-10-10T04:49:37.710Z,79.90
2023-10-10T04:52:23.608Z,79.90
2023-10-10T04:55:08.928Z,79.90
2023-10-10T04:57:55.855Z,79.90
2023-10-10T05:00:42.424Z,79.90
2023-10-10T05:03:28.108Z,80.00
2023-10-10T05:06:15.610Z,80.10
2023-10-10T05:09:01.113Z,80.10
2023-10-10T05:11:47.145Z,80.30
2023-10-10T05:14:47.067Z,80.30
2023-10-10T05:17:32.973Z,80.40
2023-10-10T05:20:18.697Z,80.40
2023-10-10T05:23:05.562Z,80.30
2023-10-10T05:25:34.009Z,80.40
2023-10-10T05:28:02.209Z,80.30
2023-10-10T05:30:41.129Z,80.30
2023-10-10T05:33:09.543Z,80.30
2023-10-10T05:35:39.371Z,80.30
2023-10-10T05:38:10.030Z,80.30
2023-10-10T05:40:39.775Z,80.30
2023-10-10T05:43:10.893Z,80.40
2023-10-10T05:45:39.217Z,80.40
2023-10-10T05:48:07.901Z,80.50
2023-10-10T05:50:37.259Z,80.60
2023-10-10T05:53:07.506Z,80.60
2023-10-10T05:55:38.551Z,80.60
2023-10-10T05:58:09.793Z,80.60
2023-10-10T06:00:38.745Z,80.50
2023-10-10T06:03:07.908Z,80.50
2023-10-10T06:05:36.709Z,80.50
2023-10-10T06:08:07.472Z,80.50
2023-10-10T06:10:37.169Z,80.40
2023-10-10T06:13:07.852Z,80.30
2023-10-10T06:15:37.166Z,80.30
2023-10-10T06:18:14.494Z,80.30
2023-10-10T06:20:54.550Z,80.30
2023-10-10T06:23:27.355Z,80.30
2023-10-10T06:26:00.850Z,80.20
2023-10-10T06:28:30.217Z,80.20
2023-10-10T06:31:01.261Z,80.20
2023-10-10T06:33:30.047Z,80.20
2023-10-10T06:36:26.667Z,80.10
2023-10-10T06:39:20.045Z,80.00
2023-10-10T06:41:55.842Z,80.00
2023-10-10T06:44:40.539Z,79.90
2023-10-10T06:47:12.871Z,79.80
2023-10-10T06:50:05.286Z,79.80
2023-10-10T06:52:40.356Z,79.60
2023-10-10T06:55:12.153Z,79.70
2023-10-10T06:57:45.423Z,79.60
2023-10-10T07:00:22.649Z,79.50
2023-10-10T07:02:53.892Z,79.40
2023-10-10T07:05:22.233Z,79.30
2023-10-10T07:07:58.573Z,79.20
2023-10-10T07:10:27.848Z,79.10
2023-10-10T07:12:59.412Z,79.00
2023-10-10T07:15:28.041Z,78.80
2023-10-10T07:18:09.643Z,78.70
2023-10-10T07:20:55.345Z,78.50
2023-10-10T07:23:23.837Z,78.30
2023-10-10T07:26:00.683Z,78.10
2023-10-10T07:28:31.096Z,77.80
2023-10-10T07:31:02.031Z,77.60
2023-10-10T07:33:41.947Z,77.40
2023-10-10T07:36:15.803Z,77.20
2023-10-10T07:38:43.989Z,76.90
2023-10-10T07:41:22.285Z,76.60
2023-10-10T07:43:51.905Z,76.20
2023-10-10T07:46:20.401Z,75.80
2023-10-10T07:48:47.637Z,75.60
2023-10-10T07:51:28.881Z,75.30
2023-10-10T07:54:12.337Z,75.00
2023-10-10T07:56:46.497Z,74.80
2023-10-10T07:59:18.784Z,74.40
2023-10-10T08:01:48.900Z,74.20
2023-10-10T08:04:18.511Z,74.00
2023-10-10T08:06:47.275Z,73.90
2023-10-10T08:09:21.986Z,73.70
2023-10-10T08:11:56.331Z,73.50
2023-10-10T08:14:32.395Z,73.30
2023-10-10T08:17:05.681Z,73.00
2023-10-10T08:19:35.855Z,72.70
2023-10-10T08:22:13.789Z,72.20
2023-10-10T08:24:45.169Z,72.00
2023-10-10T08:27:13.949Z,71.60
2023-10-10T08:29:43.574Z,71.20
2023-10-10T08:32:14.168Z,70.90
2023-10-10T08:34:44.085Z,70.70
2023-10-10T08:37:12.470Z,70.20
2023-10-10T08:39:41.840Z,69.90
2023-10-10T08:42:12.534Z,69.70
2023-10-10T08:44:42.236Z,69.30
2023-10-10T08:47:20.425Z,69.00
2023-10-10T08:49:49.637Z,68.80
2023-10-10T08:52:21.124Z,68.40
2023-10-10T08:54:52.926Z,68.20
2023-10-10T08:57:28.721Z,68.00
2023-10-10T08:59:57.160Z,67.80
2023-10-10T09:02:34.887Z,67.50
2023-10-10T09:05:05.374Z,67.20
2023-10-10T09:07:35.708Z,67.00
2023-10-10T09:10:07.105Z,66.80
2023-10-10T09:12:35.794Z,66.80
2023-10-10T09:15:18.304Z,66.70
2023-10-10T09:17:49.318Z,66.30
2023-10-10T09:20:29.028Z,66.20
2023-10-10T09:23:05.888Z,66.10
2023-10-10T09:25:43.298Z,65.70
2023-10-10T09:28:16.869Z,65.30
2023-10-10T09:30:52.180Z,64.90
2023-10-10T09:33:29.025Z,64.40
2023-10-10T09:36:09.742Z,64.10
2023-10-10T09:38:45.271Z,63.80
2023-10-10T09:41:28.657Z,63.30
2023-10-10T09:44:20.563Z,62.90
2023-10-10T09:47:14.317Z,62.40
2023-10-10T09:49:45.311Z,61.90
2023-10-10T09:52:32.186Z,61.30
2023-10-10T09:55:09.372Z,61.30
2023-10-10T09:57:41.217Z,61.00
2023-10-10T10:00:26.817Z,60.50
2023-10-10T10:03:01.385Z,60.20
2023-10-10T10:05:32.016Z,60.20
2023-10-10T10:08:08.173Z,59.70
2023-10-10T10:10:50.449Z,59.50
2023-10-10T10:13:41.757Z,59.30
2023-10-10T10:16:26.701Z,58.90
2023-10-10T10:19:12.210Z,58.20
2023-10-10T10:21:53.698Z,58.20
2023-10-10T10:24:31.990Z,57.80
2023-10-10T10:27:24.788Z,57.30
2023-10-10T10:29:56.672Z,57.20
2023-10-10T10:32:25.880Z,56.80
2023-10-10T10:34:58.201Z,57.10
2023-10-10T10:37:29.659Z,57.00
2023-10-10T10:40:16.172Z,57.00
2023-10-10T10:42:48.233Z,56.70
2023-10-10T10:45:28.186Z,56.30
2023-10-10T10:48:01.201Z,56.50
2023-10-10T10:50:44.275Z,56.00
2023-10-10T10:53:32.213Z,55.90
2023-10-10T10:56:28.656Z,55.60
2023-10-10T10:59:15.386Z,55.80
2023-10-10T11:01:53.597Z,55.50
2023-10-10T11:04:41.771Z,55.20
2023-10-10T11:07:10.126Z,54.90
2023-10-10T11:09:53.942Z,55.00
2023-10-10T11:12:32.499Z,55.00
2023-10-10T11:15:06.271Z,55.00
2023-10-10T11:17:39.507Z,54.90
2023-10-10T11:20:30.614Z,55.10
2023-10-10T11:23:12.751Z,55.30
2023-10-10T11:25:47.846Z,55.20
2023-10-10T11:28:24.737Z,54.70
2023-10-10T11:30:55.027Z,54.70
2023-10-10T11:33:49.898Z,54.40
2023-10-10T11:36:39.206Z,54.00
2023-10-10T11:39:32.693Z,53.80
2023-10-10T11:42:05.706Z,52.70
2023-10-10T11:44:35.219Z,52.70
2023-10-10T11:47:07.065Z,52.60
2023-10-10T11:49:35.291Z,51.80
2023-10-10T11:52:05.208Z,52.00
2023-10-10T11:54:33.499Z,51.70
2023-10-10T11:57:03.778Z,51.80
2023-10-10T11:59:34.058Z,51.70
2023-10-10T12:02:09.740Z,51.50
2023-10-10T12:04:39.342Z,51.60
2023-10-10T12:07:07.904Z,51.50
2023-10-10T12:09:40.050Z,51.30
2023-10-10T12:12:11.084Z,51.40
2023-10-10T12:14:39.276Z,50.80
2023-10-10T12:17:09.693Z,50.70
2023-10-10T12:19:45.271Z,50.90
2023-10-10T12:22:14.258Z,50.60
2023-10-10T12:24:46.870Z,50.10
2023-10-10T12:27:16.412Z,50.00
2023-10-10T12:29:49.263Z,50.10
2023-10-10T12:32:20.285Z,50.00
2023-10-10T12:34:49.295Z,49.90
2023-10-10T12:37:18.127Z,50.30
2023-10-10T12:39:47.535Z,50.20
2023-10-10T12:42:17.521Z,50.10
2023-10-10T12:44:49.878Z,50.00
2023-10-10T12:47:20.432Z,50.00
2023-10-10T12:49:48.651Z,49.80
2023-10-10T12:52:18.748Z,49.80
2023-10-10T12:54:58.921Z,49.40
2023-10-10T12:57:34.002Z,49.20
2023-10-10T13:00:23.440Z,49.50
2023-10-10T13:02:51.874Z,49.20
2023-10-10T13:05:20.129Z,48.70
2023-10-10T13:07:48.363Z,48.60
2023-10-10T13:10:16.681Z,48.10
2023-10-10T13:12:53.023Z,47.80
2023-10-10T13:15:29.101Z,47.60
2023-10-10T13:18:13.177Z,47.00
2023-10-10T13:20:41.700Z,47.00
2023-10-10T13:23:10.551Z,46.30
2023-10-10T13:25:39.279Z,45.60
2023-10-10T13:28:10.997Z,45.20
2023-10-10T13:30:41.112Z,45.10
2023-10-10T13:33:09.516Z,45.40
2023-10-10T13:35:38.792Z,44.90
2023-10-10T13:38:08.717Z,45.10
2023-10-10T13:40:45.059Z,45.20
2023-10-10T13:43:18.426Z,44.90
2023-10-10T13:45:49.282Z,45.00
2023-10-10T13:48:19.597Z,45.20
2023-10-10T13:50:52.449Z,44.90
2023-10-10T13:53:21.845Z,44.70
2023-10-10T13:55:52.152Z,44.60
2023-10-10T13:58:21.975Z,44.40
2023-10-10T14:00:56.860Z,44.30
2023-10-10T14:03:31.386Z,44.40
2023-10-10T14:06:05.090Z,44.40
2023-10-10T14:08:34.362Z,44.30
2023-10-10T14:11:03.485Z,44.30
2023-10-10T14:13:33.985Z,44.20
2023-10-10T14:16:02.799Z,43.90
2023-10-10T14:18:32.947Z,43.70
2023-10-10T14:21:09.968Z,43.60
2023-10-10T14:23:39.747Z,43.60
2023-10-10T14:26:18.628Z,43.80
2023-10-10T14:28:52.756Z,43.30
2023-10-10T14:31:23.219Z,42.60
2023-10-10T14:33:51.785Z,41.80
2023-10-10T14:36:22.560Z,41.20
2023-10-10T14:38:52.199Z,40.70
2023-10-10T14:41:22.629Z,40.30
2023-10-10T14:43:53.592Z,40.20
2023-10-10T14:46:25.243Z,40.00
2023-10-10T14:49:02.202Z,40.10
2023-10-10T14:51:34.956Z,40.20
2023-10-10T14:54:08.350Z,40.40
2023-10-10T14:56:37.985Z,40.20
2023-10-10T14:59:11.742Z,39.50
2023-10-10T15:01:39.967Z,39.70
2023-10-10T15:04:10.186Z,40.10
2023-10-10T15:06:42.849Z,40.30
2023-10-10T15:09:14.972Z,40.50
2023-10-10T15:11:45.293Z,40.00
2023-10-10T15:14:15.664Z,40.30
2023-10-10T15:16:47.694Z,40.90
2023-10-10T15:19:16.318Z,41.00
2023-10-10T15:21:49.522Z,41.40
2023-10-10T15:24:17.943Z,41.30
2023-10-10T15:26:49.295Z,41.50
2023-10-10T15:29:23.824Z,41.60
2023-10-10T15:31:52.388Z,41.80
2023-10-10T15:34:20.940Z,42.40
2023-10-10T15:36:49.994Z,43.00
2023-10-10T15:39:18.398Z,43.20
2023-10-10T15:41:46.832Z,43.70
2023-10-10T15:44:16.976Z,44.10
2023-10-10T15:46:46.873Z,45.10
2023-10-10T15:51:46.797Z,47.30
2023-10-10T15:54:16.259Z,48.10
2023-10-10T15:56:47.938Z,48.70
2023-10-10T15:59:17.357Z,49.20
2023-10-10T16:01:49.515Z,49.70
2023-10-10T16:04:20.493Z,50.20
2023-10-10T16:06:51.806Z,50.60
2023-10-10T16:09:30.588Z,51.00
2023-10-10T16:11:59.035Z,51.40
2023-10-10T16:14:27.744Z,51.70
2023-10-10T16:16:58.112Z,51.90
2023-10-10T16:19:28.359Z,52.10
2023-10-10T16:21:57.100Z,52.40
2023-10-10T16:24:28.497Z,52.80
2023-10-10T16:27:01.367Z,52.90
2023-10-10T16:29:34.993Z,53.20
2023-10-10T16:32:08.704Z,53.50
2023-10-10T16:34:40.458Z,53.80
2023-10-10T16:37:14.443Z,53.80
2023-10-10T16:39:45.626Z,54.00
2023-10-10T16:42:14.913Z,54.10
2023-10-10T16:44:46.113Z,54.20
2023-10-10T16:47:18.942Z,54.30
2023-10-10T16:49:51.047Z,54.30
2023-10-10T16:52:19.948Z,54.50
2023-10-10T16:54:52.133Z,54.50
2023-10-10T16:57:24.824Z,54.70
2023-10-10T16:59:57.137Z,54.70
2023-10-10T17:02:29.806Z,54.60
2023-10-10T17:05:01.968Z,54.50
2023-10-10T17:07:30.696Z,54.50
2023-10-10T17:09:59.074Z,54.50
2023-10-10T17:12:27.637Z,54.60
2023-10-10T17:14:58.185Z,54.70
2023-10-10T17:17:28.052Z,54.60
2023-10-10T17:19:56.268Z,54.50
2023-10-10T17:22:24.466Z,54.50
2023-10-10T17:24:52.611Z,54.50
2023-10-10T17:27:21.029Z,54.60
2023-10-10T17:29:49.275Z,54.80
2023-10-10T17:32:17.858Z,55.00
2023-10-10T17:34:47.484Z,55.20
2023-10-10T17:37:15.638Z,55.30
2023-10-10T17:39:44.129Z,55.40
2023-10-10T17:42:12.812Z,55.50
2023-10-10T17:44:41.328Z,55.70
2023-10-10T17:47:09.492Z,56.00
2023-10-10T17:49:37.657Z,56.20
2023-10-10T17:52:07.306Z,56.30
2023-10-10T17:54:35.468Z,56.40
2023-10-10T17:57:03.791Z,56.60
2023-10-10T17:59:33.842Z,56.90
2023-10-10T18:02:03.499Z,57.40
2023-10-10T18:04:33.002Z,57.90
2023-10-10T18:07:01.457Z,58.50
2023-10-10T18:09:36.466Z,59.00
2023-10-10T18:12:04.904Z,59.40
2023-10-10T18:14:33.212Z,59.60
2023-10-10T18:17:01.388Z,59.50
2023-10-10T18:19:29.763Z,59.80
2023-10-10T18:21:57.960Z,60.00
2023-10-10T18:24:28.580Z,60.00
2023-10-10T18:26:58.954Z,60.00
2023-10-10T18:29:27.854Z,59.90
2023-10-10T18:31:59.397Z,60.30
2023-10-10T18:34:27.804Z,60.50
2023-10-10T18:36:56.051Z,60.60
2023-10-10T18:39:28.188Z,60.90
2023-10-10T18:41:57.797Z,61.20
2023-10-10T18:44:26.101Z,61.40
2023-10-10T18:46:54.505Z,61.50
2023-10-10T18:49:23.332Z,61.70
2023-10-10T18:51:54.741Z,61.70
2023-10-10T18:54:23.045Z,61.90
2023-10-10T18:56:52.277Z,62.00
2023-10-10T18:59:22.365Z,62.10
2023-10-10T19:01:51.695Z,62.10
2023-10-10T19:04:21.108Z,62.40
2023-10-10T19:06:51.796Z,62.60
2023-10-10T19:09:24.373Z,62.80
2023-10-10T19:11:58.471Z,62.90
2023-10-10T19:14:34.852Z,63.00
2023-10-10T19:17:03.949Z,62.90
2023-10-10T19:19:32.900Z,63.00
2023-10-10T19:22:05.499Z,63.00
2023-10-10T19:24:35.970Z,63.20
2023-10-10T19:27:11.606Z,63.30
2023-10-10T19:29:42.664Z,63.30
2023-10-10T19:32:11.232Z,63.50
2023-10-10T19:34:39.329Z,63.70
2023-10-10T19:37:10.283Z,63.80
2023-10-10T19:39:39.710Z,64.00
2023-10-10T19:42:08.110Z,64.10
2023-10-10T19:44:36.495Z,64.30
2023-10-10T19:47:08.454Z,64.50
2023-10-10T19:49:36.669Z,64.70
2023-10-10T19:52:06.497Z,64.90
2023-10-10T19:54:36.073Z,65.10
2023-10-10T19:57:04.516Z,65.40
2023-10-10T19:59:33.726Z,65.50
2023-10-10T20:02:02.195Z,65.70
2023-10-10T20:04:32.653Z,65.80
2023-10-10T20:07:00.985Z,65.90
2023-10-10T20:09:29.269Z,66.10
2023-10-10T20:11:57.491Z,66.20
2023-10-10T20:14:25.885Z,66.50
2023-10-10T20:16:54.081Z,66.50
2023-10-10T20:19:23.511Z,66.60
2023-10-10T20:21:53.076Z,66.70
2023-10-10T20:24:25.064Z,66.80
2023-10-10T20:26:53.266Z,67.00
2023-10-10T20:29:21.504Z,67.20
2023-10-10T20:31:49.742Z,67.30
2023-10-10T20:34:17.935Z,67.40
2023-10-10T20:36:47.823Z,67.60
2023-10-10T20:39:19.693Z,67.50
2023-10-10T20:41:49.683Z,67.80
2023-10-10T20:44:18.130Z,67.80
2023-10-10T20:46:50.563Z,67.90
2023-10-10T20:49:18.930Z,67.90
2023-10-10T20:51:48.262Z,67.90
2023-10-10T20:54:17.830Z,68.00
2023-10-10T20:56:46.164Z,68.10
2023-10-10T20:59:14.383Z,68.10
2023-10-10T21:01:42.552Z,68.10
2023-10-10T21:04:10.952Z,68.20
2023-10-10T21:06:39.271Z,68.10
2023-10-10T21:09:07.664Z,68.10
2023-10-10T21:11:37.280Z,68.20
2023-10-10T21:14:05.845Z,68.40
2023-10-10T21:16:35.983Z,68.20
2023-10-10T21:19:05.199Z,68.10
2023-10-10T21:21:33.450Z,68.30
2023-10-10T21:24:01.705Z,68.40
2023-10-10T21:26:30.785Z,68.40
2023-10-10T21:29:00.361Z,68.60
2023-10-10T21:31:30.684Z,68.80
2023-10-10T21:33:58.912Z,68.70
2023-10-10T21:36:28.487Z,68.70
2023-10-10T21:38:56.660Z,68.80
2023-10-10T21:41:24.833Z,68.80
2023-10-10T21:43:53.062Z,68.80
2023-10-10T21:46:22.588Z,68.90
2023-10-10T21:48:53.044Z,69.00
2023-10-10T21:51:23.619Z,69.10
2023-10-10T21:53:52.108Z,69.10
2023-10-10T21:56:20.369Z,69.10
2023-10-10T21:58:48.547Z,69.10
2023-10-10T22:01:18.210Z,69.30
2023-10-10T22:03:48.617Z,69.30
2023-10-10T22:06:17.108Z,69.20
2023-10-10T22:08:45.486Z,69.20
2023-10-10T22:11:15.668Z,69.20
2023-10-10T22:13:44.806Z,69.40
2023-10-10T22:16:13.081Z,69.30
2023-10-10T22:18:41.654Z,69.20
2023-10-10T22:21:12.192Z,69.20
2023-10-10T22:23:41.097Z,69.40
2023-10-10T22:26:10.609Z,69.30
2023-10-10T22:28:40.132Z,69.50
2023-10-10T22:31:15.004Z,69.40
2023-10-10T22:33:43.633Z,69.50
2023-10-10T22:36:16.072Z,69.50
2023-10-10T22:38:46.598Z,69.60
2023-10-10T22:41:15.661Z,69.60
2023-10-10T22:43:45.815Z,69.70
2023-10-10T22:46:14.454Z,69.70
2023-10-10T22:48:44.259Z,69.70
2023-10-10T22:51:14.753Z,69.80
2023-10-10T22:53:47.422Z,69.80
2023-10-10T22:56:19.200Z,69.80
2023-10-10T22:58:47.918Z,69.90
2023-10-10T23:01:17.186Z,70.00
2023-10-10T23:03:46.848Z,70.00
2023-10-10T23:06:16.716Z,70.10
2023-10-10T23:08:45.020Z,70.10
2023-10-10T23:11:14.863Z,70.20
2023-10-10T23:13:43.303Z,70.20
2023-10-10T23:16:16.864Z,70.30
2023-10-10T23:18:46.819Z,70.40
2023-10-10T23:21:20.532Z,70.30
2023-10-10T23:23:49.171Z,70.50
2023-10-10T23:26:20.002Z,70.40
2023-10-10T23:28:52.706Z,70.40
2023-10-10T23:31:20.939Z,70.30
2023-10-10T23:33:49.140Z,70.30
2023-10-10T23:36:20.212Z,70.30
2023-10-10T23:38:49.361Z,70.40
2023-10-10T23:41:19.609Z,70.30
2023-10-10T23:43:48.548Z,70.50
2023-10-10T23:46:23.303Z,70.50
2023-10-10T23:48:52.216Z,70.70
2023-10-10T23:51:23.290Z,70.70
2023-10-10T23:53:51.527Z,70.70
2023-10-10T23:56:19.978Z,70.80
2023-10-10T23:58:53.007Z,70.80
